createdAt,value
2018-11-25T00:00:11.472Z,101.40
2018-11-25T00:01:11.432Z,100.00
2018-11-25T00:02:11.438Z,103.40
2018-11-25T00:03:11.423Z,95.00
2018-11-25T00:04:11.409Z,102.00
2018-11-25T00:05:11.372Z,126.30
2018-11-25T00:06:11.374Z,114.60
2018-11-25T00:07:11.351Z,120.60
2018-11-25T00:08:11.284Z,137.40
2018-11-25T00:09:11.262Z,106.70
2018-11-25T00:10:11.241Z,109.50
2018-11-25T00:11:11.213Z,125.80
2018-11-25T00:12:11.190Z,131.80
2018-11-25T00:13:11.182Z,154.00
2018-11-25T00:14:11.142Z,169.60
2018-11-25T00:15:11.124Z,107.50
2018-11-25T00:16:11.099Z,118.40
2018-11-25T00:17:11.078Z,111.50
2018-11-25T00:18:11.074Z,132.50
2018-11-25T00:19:11.038Z,147.40
2018-11-25T00:20:11.010Z,115.80
2018-11-25T00:21:10.999Z,122.70
2018-11-25T00:22:10.977Z,118.50
2018-11-25T00:23:10.975Z,153.00
2018-11-25T00:24:10.933Z,223.60
2018-11-25T00:25:10.905Z,143.30
2018-11-25T00:26:10.888Z,153.60
2018-11-25T00:27:10.862Z,167.60
2018-11-25T00:28:10.847Z,117.80
2018-11-25T00:29:10.842Z,129.00
2018-11-25T00:30:10.794Z,124.70
2018-11-25T00:31:10.772Z,127.10
2018-11-25T00:32:10.752Z,108.40
2018-11-25T00:33:10.728Z,105.00
2018-11-25T00:34:10.728Z,101.40
2018-11-25T00:35:10.685Z,97.20
2018-11-25T00:36:10.667Z,103.10
2018-11-25T00:37:10.644Z,87.30
2018-11-25T00:38:10.625Z,88.80
2018-11-25T00:39:10.596Z,93.30
2018-11-25T00:40:11.585Z,94.20
2018-11-25T00:41:10.556Z,98.20
2018-11-25T00:42:10.538Z,99.40
2018-11-25T00:43:10.512Z,99.40
2018-11-25T00:44:10.499Z,113.50
2018-11-25T00:45:10.478Z,102.40
2018-11-25T00:46:10.451Z,98.70
2018-11-25T00:47:10.433Z,102.10
2018-11-25T00:48:10.403Z,96.80
2018-11-25T00:49:10.382Z,92.50
2018-11-25T00:50:10.384Z,88.60
2018-11-25T00:51:10.337Z,104.70
2018-11-25T00:52:10.314Z,93.20
2018-11-25T00:53:10.290Z,103.40
2018-11-25T00:54:10.282Z,97.50
2018-11-25T00:55:10.247Z,100.60
2018-11-25T00:56:10.245Z,102.40
2018-11-25T00:57:10.212Z,101.60
2018-11-25T00:58:10.206Z,109.20
2018-11-25T00:59:10.161Z,118.20
2018-11-25T01:00:10.140Z,103.20
2018-11-25T01:01:10.141Z,103.20
2018-11-25T01:02:10.099Z,115.60
2018-11-25T01:03:10.084Z,117.70
2018-11-25T01:04:10.063Z,118.90
2018-11-25T01:05:10.037Z,112.40
2018-11-25T01:06:10.015Z,115.40
2018-11-25T01:07:10.004Z,112.40
2018-11-25T01:08:09.970Z,109.50
2018-11-25T01:09:09.944Z,126.10
2018-11-25T01:10:09.915Z,113.50
2018-11-25T01:11:09.915Z,117.20
2018-11-25T01:12:09.890Z,113.30
2018-11-25T01:13:09.856Z,108.20
2018-11-25T01:14:09.830Z,107.90
2018-11-25T01:15:09.818Z,100.80
2018-11-25T01:16:09.804Z,113.80
2018-11-25T01:17:09.767Z,100.00
2018-11-25T01:18:09.753Z,99.40
2018-11-25T01:19:09.755Z,104.30
2018-11-25T01:20:09.722Z,102.30
2018-11-25T01:21:09.683Z,98.20
2018-11-25T01:22:09.665Z,105.30
2018-11-25T01:23:09.703Z,101.00
2018-11-25T01:24:09.613Z,97.70
2018-11-25T01:25:09.587Z,108.30
2018-11-25T01:26:09.570Z,98.30
2018-11-25T01:27:09.548Z,96.20
2018-11-25T01:28:09.540Z,99.80
2018-11-25T01:29:09.518Z,90.40
2018-11-25T01:30:09.483Z,100.20
2018-11-25T01:31:09.468Z,99.00
2018-11-25T01:32:09.463Z,96.40
2018-11-25T01:33:09.436Z,114.50
2018-11-25T01:34:09.392Z,114.80
2018-11-25T01:35:09.378Z,117.90
2018-11-25T01:36:09.354Z,106.70
2018-11-25T01:37:09.331Z,110.50
2018-11-25T01:38:09.328Z,98.50
2018-11-25T01:39:09.287Z,106.60
2018-11-25T01:40:09.279Z,100.50
2018-11-25T01:41:09.253Z,101.30
2018-11-25T01:42:09.222Z,92.80
2018-11-25T01:43:09.202Z,92.20
2018-11-25T01:44:09.203Z,95.70
2018-11-25T01:45:09.154Z,92.70
2018-11-25T01:46:09.134Z,93.20
2018-11-25T01:47:09.114Z,88.20
2018-11-25T01:48:09.091Z,92.00
2018-11-25T01:49:09.088Z,89.50
2018-11-25T01:50:09.045Z,88.50
2018-11-25T01:51:09.028Z,94.30
2018-11-25T01:52:09.059Z,104.10
2018-11-25T01:53:08.983Z,102.10
2018-11-25T01:54:08.977Z,88.90
2018-11-25T01:55:08.938Z,112.60
2018-11-25T01:56:08.915Z,119.90
2018-11-25T01:57:08.895Z,107.10
2018-11-25T01:58:08.872Z,100.50
2018-11-25T01:59:08.851Z,102.90
2018-11-25T02:00:08.841Z,110.20
2018-11-25T02:01:08.804Z,105.20
2018-11-25T02:02:08.785Z,105.60
2018-11-25T02:03:08.761Z,103.10
2018-11-25T02:04:08.739Z,98.20
2018-11-25T02:05:08.745Z,107.20
2018-11-25T02:06:08.715Z,93.80
2018-11-25T02:07:08.679Z,106.90
2018-11-25T02:08:08.653Z,124.80
2018-11-25T02:09:08.634Z,114.40
2018-11-25T02:10:08.627Z,121.20
2018-11-25T02:11:08.592Z,110.20
2018-11-25T02:12:08.565Z,95.70
2018-11-25T02:13:08.547Z,108.60
2018-11-25T02:14:08.524Z,119.10
2018-11-25T02:15:08.524Z,107.80
2018-11-25T02:16:08.493Z,99.30
2018-11-25T02:17:08.461Z,111.50
2018-11-25T02:18:08.438Z,102.40
2018-11-25T02:19:08.415Z,107.80
2018-11-25T02:20:08.389Z,104.30
2018-11-25T02:21:08.387Z,101.30
2018-11-25T02:22:08.366Z,98.50
2018-11-25T02:23:08.327Z,95.20
2018-11-25T02:24:08.312Z,101.60
2018-11-25T02:25:08.284Z,98.70
2018-11-25T02:26:08.281Z,110.80
2018-11-25T02:27:08.239Z,121.80
2018-11-25T02:28:08.224Z,101.60
2018-11-25T02:29:08.192Z,87.20
2018-11-25T02:30:08.170Z,87.80
2018-11-25T02:31:08.154Z,86.40
2018-11-25T02:32:08.151Z,87.10
2018-11-25T02:33:08.109Z,90.30
2018-11-25T02:34:08.108Z,80.50
2018-11-25T02:35:08.072Z,91.80
2018-11-25T02:36:08.046Z,83.80
2018-11-25T02:37:08.023Z,81.80
2018-11-25T02:38:08.008Z,89.40
2018-11-25T02:39:07.984Z,80.10
2018-11-25T02:40:07.989Z,81.60
2018-11-25T02:41:07.933Z,76.70
2018-11-25T02:42:07.940Z,72.80
2018-11-25T02:43:07.889Z,74.50
2018-11-25T02:44:07.873Z,85.80
2018-11-25T02:45:07.847Z,71.30
2018-11-25T02:46:07.827Z,72.70
2018-11-25T02:47:07.822Z,68.20
2018-11-25T02:48:07.783Z,68.70
2018-11-25T02:49:07.760Z,65.10
2018-11-25T02:50:07.736Z,66.10
2018-11-25T02:51:07.733Z,69.50
2018-11-25T02:52:07.695Z,80.00
2018-11-25T02:53:07.672Z,76.10
2018-11-25T02:54:07.672Z,72.40
2018-11-25T02:55:07.629Z,88.40
2018-11-25T02:56:07.606Z,80.80
2018-11-25T02:57:07.586Z,80.60
2018-11-25T02:58:07.562Z,93.00
2018-11-25T02:59:07.540Z,87.90
2018-11-25T03:00:07.538Z,93.40
2018-11-25T03:01:07.499Z,97.00
2018-11-25T03:02:07.475Z,88.00
2018-11-25T03:03:07.458Z,118.60
2018-11-25T03:04:07.447Z,98.50
2018-11-25T03:05:07.411Z,150.30
2018-11-25T03:06:07.386Z,117.40
2018-11-25T03:07:07.389Z,98.00
2018-11-25T03:08:07.339Z,139.80
2018-11-25T03:09:07.341Z,130.20
2018-11-25T03:10:07.312Z,109.40
2018-11-25T03:11:07.289Z,102.60
2018-11-25T03:12:07.258Z,125.90
2018-11-25T03:13:07.242Z,163.30
2018-11-25T03:14:07.231Z,109.00
2018-11-25T03:15:07.222Z,141.60
2018-11-25T03:16:07.184Z,139.50
2018-11-25T03:17:07.147Z,101.00
2018-11-25T03:18:07.130Z,138.50
2018-11-25T03:19:07.107Z,112.90
2018-11-25T03:20:07.083Z,151.30
2018-11-25T03:21:07.091Z,160.30
2018-11-25T03:22:07.056Z,150.30
2018-11-25T03:23:07.027Z,124.20
2018-11-25T03:24:07.001Z,181.40
2018-11-25T03:25:06.967Z,114.70
2018-11-25T03:26:06.982Z,115.30
2018-11-25T03:27:06.934Z,117.10
2018-11-25T03:28:06.910Z,178.10
2018-11-25T03:29:06.883Z,174.00
2018-11-25T03:30:06.872Z,165.90
2018-11-25T03:31:06.842Z,131.00
2018-11-25T03:32:06.839Z,144.10
2018-11-25T03:33:06.798Z,178.10
2018-11-25T03:34:06.799Z,164.60
2018-11-25T03:35:06.754Z,122.70
2018-11-25T03:36:06.735Z,140.00
2018-11-25T03:37:06.757Z,124.20
2018-11-25T03:38:06.688Z,132.50
2018-11-25T03:39:06.671Z,170.50
2018-11-25T03:40:06.645Z,140.20
2018-11-25T03:41:06.628Z,150.50
2018-11-25T03:42:06.618Z,125.50
2018-11-25T03:43:06.597Z,138.90
2018-11-25T03:44:06.564Z,134.80
2018-11-25T03:45:06.541Z,140.60
2018-11-25T03:46:06.516Z,122.60
2018-11-25T03:47:06.495Z,145.10
2018-11-25T03:48:06.479Z,152.90
2018-11-25T03:49:06.460Z,134.50
2018-11-25T03:50:06.444Z,136.60
2018-11-25T03:51:06.406Z,248.30
2018-11-25T03:52:06.382Z,143.20
2018-11-25T03:53:06.361Z,129.80
2018-11-25T03:54:06.361Z,216.80
2018-11-25T03:55:06.319Z,194.00
2018-11-25T03:56:06.292Z,134.30
2018-11-25T03:57:06.270Z,143.80
2018-11-25T03:58:06.252Z,150.60
2018-11-25T03:59:06.260Z,156.80
2018-11-25T04:00:06.205Z,138.50
2018-11-25T04:01:06.186Z,210.70
2018-11-25T04:02:06.162Z,159.80
2018-11-25T04:03:06.148Z,140.70
2018-11-25T04:04:06.138Z,137.70
2018-11-25T04:05:06.106Z,149.50
2018-11-25T04:06:06.076Z,144.80
2018-11-25T04:07:06.053Z,187.00
2018-11-25T04:08:06.032Z,138.80
2018-11-25T04:09:06.034Z,129.60
2018-11-25T04:10:06.009Z,131.80
2018-11-25T04:11:05.971Z,139.10
2018-11-25T04:12:05.950Z,128.90
2018-11-25T04:13:05.967Z,119.60
2018-11-25T04:14:05.902Z,112.80
2018-11-25T04:15:05.907Z,114.60
2018-11-25T04:16:05.859Z,120.70
2018-11-25T04:17:05.857Z,113.30
2018-11-25T04:18:05.817Z,111.80
2018-11-25T04:19:05.796Z,122.30
2018-11-25T04:20:05.788Z,112.20
2018-11-25T04:21:05.770Z,111.20
2018-11-25T04:22:05.728Z,102.90
2018-11-25T04:23:05.710Z,109.40
2018-11-25T04:24:05.684Z,117.80
2018-11-25T04:25:05.663Z,123.40
2018-11-25T04:26:05.661Z,110.10
2018-11-25T04:27:05.621Z,127.90
2018-11-25T04:28:05.602Z,100.10
2018-11-25T04:29:05.583Z,117.90
2018-11-25T04:30:05.561Z,109.30
2018-11-25T04:31:05.538Z,117.40
2018-11-25T04:32:05.533Z,115.60
2018-11-25T04:33:05.492Z,113.90
2018-11-25T04:34:05.471Z,109.50
2018-11-25T04:35:05.446Z,105.40
2018-11-25T04:36:05.423Z,107.00
2018-11-25T04:37:05.404Z,91.60
2018-11-25T04:38:05.401Z,90.00
2018-11-25T04:39:05.360Z,103.30
2018-11-25T04:40:05.340Z,101.00
2018-11-25T04:41:05.334Z,99.50
2018-11-25T04:42:05.299Z,89.10
2018-11-25T04:43:05.292Z,91.10
2018-11-25T04:44:05.254Z,96.30
2018-11-25T04:45:05.230Z,93.60
2018-11-25T04:46:05.209Z,95.40
2018-11-25T04:47:05.191Z,90.30
2018-11-25T04:48:05.179Z,94.30
2018-11-25T04:49:05.152Z,98.80
2018-11-25T04:50:05.125Z,102.80
2018-11-25T04:51:05.099Z,93.20
2018-11-25T04:52:05.078Z,107.70
2018-11-25T04:53:05.090Z,94.70
2018-11-25T04:54:05.034Z,94.70
2018-11-25T04:55:05.013Z,94.30
2018-11-25T04:56:04.989Z,92.80
2018-11-25T04:57:04.969Z,107.40
2018-11-25T04:58:04.975Z,93.60
2018-11-25T04:59:04.925Z,111.70
2018-11-25T05:00:04.900Z,103.80
2018-11-25T05:01:04.882Z,103.60
2018-11-25T05:02:04.858Z,112.70
2018-11-25T05:03:04.839Z,105.50
2018-11-25T05:04:04.836Z,108.50
2018-11-25T05:05:04.801Z,95.60
2018-11-25T05:06:04.772Z,105.70
2018-11-25T05:07:04.748Z,113.40
2018-11-25T05:08:04.751Z,115.10
2018-11-25T05:09:04.706Z,101.10
2018-11-25T05:10:04.693Z,109.80
2018-11-25T05:11:04.666Z,104.90
2018-11-25T05:12:04.645Z,105.10
2018-11-25T05:13:04.618Z,114.70
2018-11-25T05:14:04.613Z,103.50
2018-11-25T05:15:04.577Z,123.20
2018-11-25T05:16:04.564Z,105.10
2018-11-25T05:17:04.534Z,107.20
2018-11-25T05:18:04.518Z,104.80
2018-11-25T05:19:04.515Z,109.30
2018-11-25T05:20:04.471Z,114.20
2018-11-25T05:21:04.465Z,112.20
2018-11-25T05:22:04.428Z,120.40
2018-11-25T05:23:04.406Z,111.90
2018-11-25T05:24:04.406Z,123.60
2018-11-25T05:25:04.359Z,118.20
2018-11-25T05:26:04.358Z,107.10
2018-11-25T05:27:04.316Z,125.50
2018-11-25T05:28:04.294Z,117.00
2018-11-25T05:29:04.267Z,122.60
2018-11-25T05:30:04.267Z,127.60
2018-11-25T05:31:04.229Z,127.70
2018-11-25T05:32:04.207Z,121.90
2018-11-25T05:33:04.184Z,119.60
2018-11-25T05:34:04.161Z,124.50
2018-11-25T05:35:04.139Z,148.60
2018-11-25T05:36:04.136Z,175.80
2018-11-25T05:37:04.095Z,138.90
2018-11-25T05:38:04.077Z,161.10
2018-11-25T05:39:04.060Z,221.90
2018-11-25T05:40:04.027Z,161.80
2018-11-25T05:41:04.028Z,158.20
2018-11-25T05:42:03.992Z,160.40
2018-11-25T05:43:03.961Z,192.50
2018-11-25T05:44:03.947Z,163.10
2018-11-25T05:45:03.922Z,170.50
2018-11-25T05:46:03.915Z,148.80
2018-11-25T05:47:03.875Z,190.60
2018-11-25T05:48:03.857Z,153.00
2018-11-25T05:49:03.835Z,213.10
2018-11-25T05:50:03.807Z,176.20
2018-11-25T05:51:03.802Z,164.40
2018-11-25T05:52:03.764Z,161.80
2018-11-25T05:53:03.750Z,160.50
2018-11-25T05:54:03.724Z,229.40
2018-11-25T05:55:03.703Z,157.30
2018-11-25T05:56:03.722Z,157.20
2018-11-25T05:57:03.658Z,178.60
2018-11-25T05:58:03.638Z,170.80
2018-11-25T05:59:03.614Z,201.20
2018-11-25T06:00:03.591Z,161.30
2018-11-25T06:01:03.592Z,169.00
2018-11-25T06:02:03.553Z,190.20
2018-11-25T06:03:03.545Z,269.20
2018-11-25T06:04:03.515Z,148.80
2018-11-25T06:05:03.480Z,207.50
2018-11-25T06:06:03.459Z,163.40
2018-11-25T06:07:03.436Z,150.00
2018-11-25T06:08:03.441Z,264.00
2018-11-25T06:09:03.401Z,172.40
2018-11-25T06:10:03.380Z,211.50
2018-11-25T06:11:03.359Z,169.30
2018-11-25T06:12:03.331Z,182.80
2018-11-25T06:13:03.359Z,160.70
2018-11-25T06:14:03.300Z,205.60
2018-11-25T06:15:03.277Z,236.70
2018-11-25T06:16:03.265Z,150.70
2018-11-25T06:17:03.235Z,177.60
2018-11-25T06:18:03.199Z,154.30
2018-11-25T06:19:03.201Z,154.90
2018-11-25T06:20:03.162Z,148.60
2018-11-25T06:21:03.185Z,168.40
2018-11-25T06:22:03.118Z,144.60
2018-11-25T06:23:03.099Z,162.40
2018-11-25T06:24:03.073Z,146.80
2018-11-25T06:25:03.078Z,141.60
2018-11-25T06:26:03.029Z,146.50
2018-11-25T06:27:03.008Z,170.90
2018-11-25T06:28:02.991Z,141.50
2018-11-25T06:29:02.956Z,140.40
2018-11-25T06:30:02.972Z,132.70
2018-11-25T06:31:02.914Z,129.20
2018-11-25T06:32:02.894Z,141.70
2018-11-25T06:33:02.873Z,126.10
2018-11-25T06:34:02.852Z,165.10
2018-11-25T06:35:02.832Z,142.70
2018-11-25T06:36:02.826Z,140.00
2018-11-25T06:37:02.790Z,148.00
2018-11-25T06:38:02.774Z,151.40
2018-11-25T06:39:02.747Z,165.40
2018-11-25T06:40:02.720Z,142.20
2018-11-25T06:41:02.711Z,179.00
2018-11-25T06:42:02.675Z,156.00
2018-11-25T06:43:02.653Z,149.70
2018-11-25T06:44:02.630Z,152.60
2018-11-25T06:45:02.626Z,141.20
2018-11-25T06:46:02.629Z,154.50
2018-11-25T06:47:02.721Z,162.10
2018-11-25T06:48:02.544Z,143.30
2018-11-25T06:49:02.531Z,140.30
2018-11-25T06:50:02.507Z,139.80
2018-11-25T06:51:02.494Z,144.40
2018-11-25T06:52:02.463Z,147.10
2018-11-25T06:53:02.437Z,135.70
2018-11-25T06:54:02.448Z,128.00
2018-11-25T06:55:02.389Z,125.00
2018-11-25T06:56:02.383Z,133.90
2018-11-25T06:57:02.353Z,143.20
2018-11-25T06:58:02.345Z,136.80
2018-11-25T06:59:02.321Z,145.20
2018-11-25T07:00:02.289Z,137.20
2018-11-25T07:01:02.270Z,139.50
2018-11-25T07:02:02.244Z,156.20
2018-11-25T07:03:02.238Z,225.20
2018-11-25T07:04:02.196Z,157.80
2018-11-25T07:05:02.180Z,137.40
2018-11-25T07:06:02.157Z,152.10
2018-11-25T07:07:02.135Z,174.40
2018-11-25T07:08:02.129Z,146.60
2018-11-25T07:09:02.091Z,147.80
2018-11-25T07:10:02.067Z,135.00
2018-11-25T07:11:02.170Z,152.40
2018-11-25T07:12:02.028Z,136.30
2018-11-25T07:13:02.021Z,130.20
2018-11-25T07:14:01.989Z,184.70
2018-11-25T07:15:01.961Z,166.10
2018-11-25T07:16:01.945Z,133.10
2018-11-25T07:17:01.912Z,185.60
2018-11-25T07:18:01.909Z,202.90
2018-11-25T07:19:01.872Z,238.50
2018-11-25T07:20:01.854Z,208.90
2018-11-25T07:21:01.842Z,155.90
2018-11-25T07:22:01.807Z,152.50
2018-11-25T07:23:02.632Z,167.00
2018-11-25T07:24:01.766Z,238.90
2018-11-25T07:25:01.750Z,242.70
2018-11-25T07:26:01.732Z,173.50
2018-11-25T07:27:01.702Z,166.40
2018-11-25T07:28:17.656Z,172.20
2018-11-25T07:29:01.672Z,148.30
2018-11-25T07:30:07.633Z,154.30
2018-11-25T07:31:01.608Z,236.90
2018-11-25T07:32:01.588Z,159.90
2018-11-25T07:33:01.588Z,166.10
2018-11-25T07:34:01.547Z,160.50
2018-11-25T07:35:01.529Z,156.70
2018-11-25T07:36:01.514Z,176.10
2018-11-25T07:37:01.484Z,169.80
2018-11-25T07:38:01.458Z,184.10
2018-11-25T07:39:01.438Z,154.90
2018-11-25T07:40:01.433Z,165.10
2018-11-25T07:41:01.410Z,138.70
2018-11-25T07:42:01.379Z,151.80
2018-11-25T07:43:01.350Z,168.80
2018-11-25T07:44:01.331Z,174.20
2018-11-25T07:45:01.305Z,146.80
2018-11-25T07:46:02.506Z,169.30
2018-11-25T07:47:01.409Z,152.20
2018-11-25T07:48:01.244Z,154.80
2018-11-25T07:49:01.219Z,143.60
2018-11-25T07:50:01.211Z,160.50
2018-11-25T07:51:01.189Z,147.20
2018-11-25T07:52:01.164Z,157.50
2018-11-25T07:53:01.131Z,159.00
2018-11-25T07:54:01.120Z,158.40
2018-11-25T07:55:01.100Z,157.10
2018-11-25T07:56:01.082Z,148.00
2018-11-25T07:57:01.059Z,153.80
2018-11-25T07:58:01.032Z,196.60
2018-11-25T07:59:01.022Z,156.90
2018-11-25T08:00:00.985Z,162.20
2018-11-25T08:01:00.986Z,156.90
2018-11-25T08:02:00.936Z,163.00
2018-11-25T08:03:00.910Z,162.40
2018-11-25T08:04:00.913Z,171.80
2018-11-25T08:05:00.871Z,175.40
2018-11-25T08:06:00.851Z,150.80
2018-11-25T08:07:00.854Z,171.90
2018-11-25T08:08:00.799Z,187.30
2018-11-25T08:09:00.797Z,166.70
2018-11-25T08:10:00.766Z,170.00
2018-11-25T08:11:00.746Z,161.80
2018-11-25T08:12:00.743Z,177.90
2018-11-25T08:13:00.707Z,170.70
2018-11-25T08:14:00.685Z,165.20
2018-11-25T08:15:00.669Z,156.60
2018-11-25T08:16:00.641Z,170.70
2018-11-25T08:17:00.612Z,176.30
2018-11-25T08:18:00.610Z,156.40
2018-11-25T08:19:00.620Z,170.20
2018-11-25T08:20:00.543Z,165.10
2018-11-25T08:21:00.542Z,169.70
2018-11-25T08:22:00.500Z,168.70
2018-11-25T08:23:00.483Z,170.30
2018-11-25T08:24:00.466Z,176.10
2018-11-25T08:25:00.458Z,179.50
2018-11-25T08:26:00.418Z,167.90
2018-11-25T08:27:00.394Z,165.40
2018-11-25T08:28:00.392Z,173.10
2018-11-25T08:29:00.358Z,165.30
2018-11-25T08:30:00.337Z,165.40
2018-11-25T08:31:00.310Z,166.30
2018-11-25T08:32:00.284Z,156.60
2018-11-25T08:33:00.290Z,157.50
2018-11-25T08:34:00.250Z,167.10
2018-11-25T08:35:00.224Z,173.80
2018-11-25T08:36:00.200Z,167.40
2018-11-25T08:37:00.177Z,189.70
2018-11-25T08:38:00.182Z,169.50
2018-11-25T08:39:02.127Z,173.70
2018-11-25T08:40:00.146Z,169.00
2018-11-25T08:41:00.095Z,167.20
2018-11-25T08:42:00.077Z,167.40
2018-11-25T08:43:00.067Z,163.50
2018-11-25T08:44:00.038Z,162.70
2018-11-25T08:45:00.007Z,169.50
2018-11-25T08:46:00.020Z,159.90
2018-11-25T08:46:59.962Z,167.30
2018-11-25T08:47:59.946Z,165.40
2018-11-25T08:48:59.920Z,167.80
2018-11-25T08:49:59.902Z,161.90
2018-11-25T08:50:59.900Z,167.60
2018-11-25T08:51:59.861Z,169.30
2018-11-25T08:52:59.838Z,169.90
2018-11-25T08:53:59.818Z,164.30
2018-11-25T08:54:59.802Z,149.20
2018-11-25T08:55:59.785Z,144.10
2018-11-25T08:56:59.760Z,135.90
2018-11-25T08:57:59.723Z,129.90
2018-11-25T08:58:59.710Z,140.80
2018-11-25T08:59:59.679Z,125.50
2018-11-25T09:00:59.677Z,120.00
2018-11-25T09:01:59.637Z,123.50
2018-11-25T09:02:59.624Z,124.30
2018-11-25T09:03:59.595Z,117.50
2018-11-25T09:04:59.573Z,117.10
2018-11-25T09:05:59.570Z,114.10
2018-11-25T09:06:59.534Z,108.20
2018-11-25T09:07:59.511Z,107.80
2018-11-25T09:08:59.492Z,101.80
2018-11-25T09:09:59.471Z,98.70
2018-11-25T09:10:59.463Z,97.80
2018-11-25T09:11:59.418Z,91.80
2018-11-25T09:12:59.413Z,94.30
2018-11-25T09:13:59.380Z,93.70
2018-11-25T09:14:59.365Z,88.50
2018-11-25T09:15:59.356Z,95.10
2018-11-25T09:16:59.331Z,89.80
2018-11-25T09:17:59.313Z,89.20
2018-11-25T09:18:59.307Z,83.00
2018-11-25T09:19:59.263Z,78.00
2018-11-25T09:20:59.230Z,76.30
2018-11-25T09:21:59.882Z,72.50
2018-11-25T09:22:59.202Z,77.50
2018-11-25T09:23:59.170Z,77.80
2018-11-25T09:24:59.146Z,80.20
2018-11-25T09:25:59.125Z,76.00
2018-11-25T09:26:59.101Z,76.80
2018-11-25T09:27:59.089Z,73.80
2018-11-25T09:28:59.076Z,72.50
2018-11-25T09:29:59.033Z,67.50
2018-11-25T09:30:59.013Z,66.30
2018-11-25T09:31:58.992Z,64.40
2018-11-25T09:32:58.972Z,64.00
2018-11-25T09:33:58.971Z,62.10
2018-11-25T09:34:58.980Z,66.40
2018-11-25T09:35:58.910Z,62.90
2018-11-25T09:36:58.892Z,62.60
2018-11-25T09:37:58.881Z,59.90
2018-11-25T09:38:58.867Z,61.40
2018-11-25T09:39:58.854Z,60.50
2018-11-25T09:40:59.265Z,57.70
2018-11-25T09:41:58.807Z,57.50
2018-11-25T09:42:58.762Z,58.20
2018-11-25T09:43:58.768Z,54.60
2018-11-25T09:44:58.716Z,53.70
2018-11-25T09:45:58.695Z,56.50
2018-11-25T09:46:58.673Z,50.80
2018-11-25T09:47:58.646Z,51.40
2018-11-25T09:48:58.632Z,50.20
2018-11-25T09:49:58.628Z,50.90
2018-11-25T09:50:58.589Z,52.80
2018-11-25T09:51:58.572Z,48.50
2018-11-25T09:52:58.689Z,51.70
2018-11-25T09:53:58.545Z,49.10
2018-11-25T09:54:58.513Z,46.80
2018-11-25T09:55:58.508Z,47.30
2018-11-25T09:56:58.460Z,46.80
2018-11-25T09:57:58.440Z,44.30
2018-11-25T09:58:58.427Z,45.90
2018-11-25T09:59:58.407Z,43.20
2018-11-25T10:00:58.411Z,45.70
2018-11-25T10:01:58.364Z,46.30
2018-11-25T10:02:58.337Z,45.10
2018-11-25T10:03:58.310Z,45.30
2018-11-25T10:04:58.303Z,45.20
2018-11-25T10:05:58.287Z,48.90
2018-11-25T10:06:58.251Z,45.80
2018-11-25T10:07:58.224Z,48.40
2018-11-25T10:08:58.201Z,48.70
2018-11-25T10:09:58.181Z,52.30
2018-11-25T10:10:58.181Z,50.20
2018-11-25T10:11:58.142Z,48.10
2018-11-25T10:12:58.129Z,51.90
2018-11-25T10:13:58.097Z,51.50
2018-11-25T10:14:58.078Z,51.70
2018-11-25T10:15:58.079Z,53.30
2018-11-25T10:16:58.034Z,51.70
2018-11-25T10:17:59.754Z,53.40
2018-11-25T10:18:58.014Z,53.90
2018-11-25T10:19:57.970Z,53.20
2018-11-25T10:20:57.972Z,55.00
2018-11-25T10:21:57.930Z,52.40
2018-11-25T10:22:57.912Z,54.30
2018-11-25T10:23:57.887Z,56.20
2018-11-25T10:24:57.940Z,55.90
2018-11-25T10:25:57.866Z,56.30
2018-11-25T10:26:57.842Z,54.50
2018-11-25T10:27:57.822Z,54.20
2018-11-25T10:28:57.782Z,58.20
2018-11-25T10:29:57.761Z,56.80
2018-11-25T10:30:57.755Z,55.00
2018-11-25T10:31:57.742Z,57.10
2018-11-25T10:32:57.709Z,59.50
2018-11-25T10:33:57.689Z,57.60
2018-11-25T10:34:57.653Z,52.80
2018-11-25T10:35:57.642Z,59.30
2018-11-25T10:36:57.667Z,57.40
2018-11-25T10:37:57.621Z,55.90
2018-11-25T10:38:57.590Z,53.60
2018-11-25T10:39:57.555Z,56.80
2018-11-25T10:40:57.528Z,57.00
2018-11-25T10:41:57.508Z,57.70
2018-11-25T10:42:57.496Z,58.50
2018-11-25T10:43:57.480Z,54.10
2018-11-25T10:44:57.442Z,56.50
2018-11-25T10:45:57.426Z,56.90
2018-11-25T10:46:57.397Z,59.00
2018-11-25T10:47:57.378Z,61.50
2018-11-25T10:48:57.406Z,63.30
2018-11-25T10:49:57.335Z,58.80
2018-11-25T10:50:57.317Z,63.60
2018-11-25T10:51:57.303Z,64.30
2018-11-25T10:52:57.280Z,63.60
2018-11-25T10:53:57.264Z,68.40
2018-11-25T10:54:57.234Z,61.60
2018-11-25T10:55:57.207Z,61.90
2018-11-25T10:56:57.197Z,61.80
2018-11-25T10:57:57.168Z,64.40
2018-11-25T10:58:57.166Z,65.70
2018-11-25T10:59:57.150Z,67.30
2018-11-25T11:00:57.102Z,67.10
2018-11-25T11:01:57.105Z,65.70
2018-11-25T11:02:57.063Z,65.30
2018-11-25T11:03:57.067Z,66.60
2018-11-25T11:04:57.042Z,66.20
2018-11-25T11:05:57.025Z,66.60
2018-11-25T11:06:56.979Z,66.40
2018-11-25T11:07:56.953Z,65.90
2018-11-25T11:08:56.932Z,62.40
2018-11-25T11:09:56.911Z,61.90
2018-11-25T11:10:56.909Z,63.80
2018-11-25T11:11:56.877Z,66.30
2018-11-25T11:12:56.851Z,67.20
2018-11-25T11:13:56.863Z,66.60
2018-11-25T11:14:56.813Z,65.90
2018-11-25T11:15:56.807Z,68.50
2018-11-25T11:16:56.758Z,70.80
2018-11-25T11:17:56.764Z,63.30
2018-11-25T11:18:56.721Z,66.00
2018-11-25T11:19:56.698Z,63.10
2018-11-25T11:20:56.698Z,65.70
2018-11-25T11:21:56.688Z,62.70
2018-11-25T11:22:56.639Z,69.70
2018-11-25T11:23:56.617Z,69.00
2018-11-25T11:24:56.593Z,70.50
2018-11-25T11:25:56.589Z,63.50
2018-11-25T11:26:56.571Z,66.40
2018-11-25T11:27:56.543Z,69.20
2018-11-25T11:28:56.524Z,67.10
2018-11-25T11:29:56.495Z,66.20
2018-11-25T11:30:56.475Z,64.10
2018-11-25T11:31:56.467Z,65.00
2018-11-25T11:32:56.451Z,63.20
2018-11-25T11:33:56.406Z,61.70
2018-11-25T11:34:56.385Z,57.40
2018-11-25T11:35:56.361Z,59.90
2018-11-25T11:36:56.351Z,59.60
2018-11-25T11:37:56.319Z,60.40
2018-11-25T11:38:56.338Z,62.70
2018-11-25T11:39:56.286Z,64.80
2018-11-25T11:40:56.261Z,61.60
2018-11-25T11:41:56.240Z,61.90
2018-11-25T11:42:56.229Z,62.10
2018-11-25T11:43:56.231Z,62.10
2018-11-25T11:44:56.176Z,60.90
2018-11-25T11:45:56.155Z,64.80
2018-11-25T11:46:56.138Z,64.90
2018-11-25T11:47:56.109Z,62.80
2018-11-25T11:48:56.099Z,65.60
2018-11-25T11:49:56.085Z,63.60
2018-11-25T11:50:56.066Z,55.40
2018-11-25T11:51:56.071Z,57.10
2018-11-25T11:52:56.017Z,55.80
2018-11-25T11:53:56.017Z,56.90
2018-11-25T11:54:55.970Z,58.90
2018-11-25T11:55:55.949Z,60.80
2018-11-25T11:56:55.922Z,58.50
2018-11-25T11:57:55.903Z,64.50
2018-11-25T11:58:55.895Z,61.60
2018-11-25T11:59:55.881Z,62.80
2018-11-25T12:00:55.853Z,60.10
2018-11-25T12:01:55.822Z,60.30
2018-11-25T12:02:55.793Z,64.10
2018-11-25T12:03:55.790Z,65.70
2018-11-25T12:04:55.751Z,63.90
2018-11-25T12:05:55.756Z,63.70
2018-11-25T12:06:55.708Z,59.40
2018-11-25T12:07:55.692Z,59.70
2018-11-25T12:08:55.667Z,60.40
2018-11-25T12:09:55.668Z,61.10
2018-11-25T12:10:55.643Z,64.90
2018-11-25T12:11:55.607Z,63.80
2018-11-25T12:12:55.583Z,60.20
2018-11-25T12:13:55.566Z,61.00
2018-11-25T12:14:55.553Z,61.90
2018-11-25T12:15:55.547Z,59.80
2018-11-25T12:16:55.500Z,61.70
2018-11-25T12:17:55.482Z,62.20
2018-11-25T12:18:55.466Z,63.90
2018-11-25T12:20:01.495Z,58.40
2018-11-25T12:20:55.438Z,59.70
2018-11-25T12:21:58.317Z,58.80
2018-11-25T12:22:55.377Z,59.80
2018-11-25T12:23:55.356Z,58.70
2018-11-25T12:24:55.329Z,57.70
2018-11-25T12:25:55.308Z,58.50
2018-11-25T12:26:55.321Z,57.30
2018-11-25T12:27:55.273Z,59.60
2018-11-25T12:28:55.261Z,58.50
2018-11-25T12:29:55.225Z,57.50
2018-11-25T12:30:55.221Z,61.30
2018-11-25T12:31:55.200Z,58.40
2018-11-25T12:32:55.173Z,59.60
2018-11-25T12:33:55.141Z,60.30
2018-11-25T12:34:55.119Z,59.60
2018-11-25T12:35:55.098Z,62.80
2018-11-25T12:36:55.084Z,63.20
2018-11-25T12:37:55.079Z,62.70